Terminal Aerodrome Forecast
Issued by NWS

Home | Current Version | Previous Version | Text Only | Print | Product List | Glossary On
Versions: 1 2 3 4 5 6 7 8 9 10 11 12 13 14 15 16 17
000
FTAK31 PAJN 261135
TAFAYA
TAF
PAYA 261135Z 2612/2712 00000KT P6SM SCT100 BKN200
     FM261500 VRB05KT P6SM SCT035 BKN100
     FM270000 34004KT P6SM SCT035
      AMD LTD TO CLD VIS AND WIND 2701/2709=

USA.gov is the U.S. government's official web portal to all federal, state and local government web resources and services.